Language selection

Features

My Weather Profile Weather Topics  | 

Northern Lake Huron: Past 24 Hour Conditions

 

Ajax - 45159

01:00 AM EDT 17 October 2019Buoy position: 43.77N 78.98W
Disclaimer

This table is a summary of hourly weather conditions for the past 24 hours.
Please note that these observations might not always be representative of weather conditions over their associated marine area.

Date / Time
(EDT)
Wind(knots) Wave height(m) Wave period(s) Pressure(kPa) Air tempC) Water tempC)
17 October 2019
1:00 WNW 12 gust 16 0.4 3.0 99.7 10 14
0:00 W 8 gust 12 0.4 4.0 99.7 10 14
16 October 2019
23:00 W 12 gust 13 0.4 4.0 99.7 10 14
22:00 W 12 gust 13 0.5 4.0 99.8 10 14
21:00 W 12 gust 13 0.5 4.0 99.8 11 14
20:00 W 10 gust 13 0.6 4.0 99.8 11 14
19:00 W 12 gust 13 0.6 4.0 99.8 12 14
18:00 SW 13 gust 17 0.7 4.0 99.8 12 14
17:00 WSW 10 gust 12 0.8 4.0 99.9 11 14
16:00 SW 16 gust 17 0.9 5.0 99.9 12 15
15:00 SW 17 gust 22 1.0 4.0 99.9 12 15
14:00 SSW 16 gust 22 0.8 4.0 100.0 12 15
13:00 SSW 17 gust 22 0.8 6.0 100.0 12 15
12:00 WSW 13 gust 16 0.9 4.0 100.0 12 15
11:00 WSW 17 gust 19 1.0 5.0 100.0 14 15
10:00 WNW 17 gust 19 1.1 6.0 99.9 14 15
9:00 ESE 12 gust 16 0.9 5.0 99.9 14 15
8:00 ESE 4 gust 8 1.1 5.0 100.0 13 15
7:00 ESE 12 gust 16 1.1 5.0 100.1 14 15
6:00 E 17 gust 22 1.2 5.0 100.1 15 15
5:00 E 19 gust 23 1.0 5.0 100.2 14 15
4:00 E 16 gust 17 1.1 5.0 100.4 14 15
3:00 ESE 13 gust 17 1.1 5.0 100.6 14 15
2:00 ESE 13 gust 17 1.1 5.0 100.7 14 15
1:00 ESE 13 gust 16 1.3 5.0 100.8 14 15

Zoom-in to make a selection

Map of Great Lakes - Lake Huron marine weather areas N Huron - 45003 W Erie - 45005 S Huron - 45008 Lake Ontario - 45012 Port Stanley - 45132 Prince Edward Point - 45135 Georgian Bay - 45137 Grimsby - 45139 Port Colborne - 45142 South Georgian Bay - 45143 Lake St Clair - 45147 South Lake Huron - 45149 Lake Simcoe - 45151 Lake Nipissing - 45152 North Channel - 45154 Ajax - 45159 Sault Ste. Marie Airport Killarney Greater Sudbury Airport North Bay Airport Gore Bay-Manitoulin Airport Great Duck Island Brockville Grenadier Island Kingston Airport Collingwood Lagoon City Muskoka Airport Parry Sound Harbour Lake Simcoe Regional Airport Wiarton Airport Western Islands Cove Island Goderich Sarnia Chris Hadfield Airport Tobermory Harrow AAFC Long Point Port Weller St. Catharines / Niagara District Airport Southeast Shoal Vineland Station Welland-Pelham Windsor Airport Port Colborne Erieau Point Pelee Burlington Lift Bridge Cobourg Hamilton Munro Int'l Airport Oshawa Executive Airport Point Petre Toronto City Centre Airport CFB Trenton Peterborough Municipal Airport
Legend:
buoy Buoy
land station Land Station

Great Lakes - Lake Huron Area

Another Region

What we are doing

Date modified: